Wetterdaten: Donnerstag, 18.07.2013
Datum Zeit Temperatur Luftfeuchte Luftdruck Regen Wind Richtung Richtung Taupunkt Windchill Windben
18.07.2013 00:00 15,5 C 71 % 1025,0 hPa 0,0 l/m 4,2 km/h (1 Bft) O 90 10,3 C 14,8 C 4,5 km/h (1 Bft)
18.07.2013 00:05 15,6 C 70 % 1025,0 hPa 0,0 l/m 3,5 km/h (1 Bft) NO 45 10,1 C 15,0 C 0,0 km/h (0 Bft)
18.07.2013 00:10 15,1 C 71 % 1025,0 hPa 0,0 l/m 2,7 km/h (1 Bft) O-NO 67 9,9 C 14,7 C 2,7 km/h (1 Bft)
18.07.2013 00:15 15,0 C 72 % 1025,0 hPa 0,0 l/m 2,1 km/h (1 Bft) O 90 10,0 C 14,5 C 3,2 km/h (1 Bft)
18.07.2013 00:20 15,0 C 73 % 1025,1 hPa 0,0 l/m 2,9 km/h (1 Bft) O-NO 67 10,2 C 14,6 C 3,1 km/h (1 Bft)
18.07.2013 00:25 15,1 C 71 % 1025,1 hPa 0,0 l/m 2,9 km/h (1 Bft) O-NO 67 9,9 C 14,7 C 1,6 km/h (1 Bft)
18.07.2013 00:30 14,7 C 73 % 1025,1 hPa 0,0 l/m 2,4 km/h (1 Bft) O 90 9,9 C 14,5 C 2,7 km/h (1 Bft)
18.07.2013 00:35 14,3 C 72 % 1025,1 hPa 0,0 l/m 1,1 km/h (1 Bft) NO 45 9,3 C 14,2 C 0,0 km/h (0 Bft)
18.07.2013 00:40 13,9 C 73 % 1025,0 hPa 0,0 l/m 0,6 km/h (0 Bft) NO 45 9,1 C 14,0 C 0,0 km/h (0 Bft)
18.07.2013 00:45 13,8 C 73 % 1025,0 hPa 0,0 l/m 0,0 km/h (0 Bft) NO 45 9,0 C 13,7 C 0,0 km/h (0 Bft)
18.07.2013 00:50 13,9 C 73 % 1025,0 hPa 0,0 l/m 0,0 km/h (0 Bft) NO 45 9,1 C 13,5 C 0,0 km/h (0 Bft)
18.07.2013 00:55 13,9 C 73 % 1025,0 hPa 0,0 l/m 0,3 km/h (0 Bft) O-NO 67 9,1 C 13,5 C 2,3 km/h (1 Bft)
18.07.2013 01:00 14,1 C 72 % 1024,8 hPa 0,0 l/m 0,3 km/h (0 Bft) NO 45 9,1 C 13,7 C 1,6 km/h (1 Bft)
18.07.2013 01:05 14,0 C 72 % 1024,8 hPa 0,0 l/m 0,2 km/h (0 Bft) NO 45 9,0 C 13,8 C 0,0 km/h (0 Bft)
18.07.2013 01:10 13,8 C 72 % 1024,8 hPa 0,0 l/m 0,0 km/h (0 Bft) NO 45 8,8 C 13,8 C 0,0 km/h (0 Bft)
18.07.2013 01:15 13,5 C 73 % 1024,8 hPa 0,0 l/m 0,0 km/h (0 Bft) N-NO 22 8,8 C 13,5 C 0,0 km/h (0 Bft)
18.07.2013 01:20 13,4 C 73 % 1024,8 hPa 0,0 l/m 0,0 km/h (0 Bft) O-NO 67 8,7 C 13,5 C 1,8 km/h (1 Bft)
18.07.2013 01:25 13,4 C 73 % 1024,8 hPa 0,0 l/m 0,0 km/h (0 Bft) N-NO 22 8,7 C 13,3 C 0,0 km/h (0 Bft)
18.07.2013 01:30 13,3 C 75 % 1024,8 hPa 0,0 l/m 0,0 km/h (0 Bft) NO 45 9,0 C 13,2 C 0,0 km/h (0 Bft)
18.07.2013 01:35 13,5 C 75 % 1024,8 hPa 0,0 l/m 0,0 km/h (0 Bft) NO 45 9,2 C 13,0 C 0,0 km/h (0 Bft)
18.07.2013 01:40 13,3 C 75 % 1024,3 hPa 0,0 l/m 0,0 km/h (0 Bft) NO 45 9,0 C 13,0 C 0,0 km/h (0 Bft)
18.07.2013 01:45 13,2 C 75 % 1024,3 hPa 0,0 l/m 0,0 km/h (0 Bft) NO 45 8,9 C 13,0 C 0,0 km/h (0 Bft)
18.07.2013 01:50 13,2 C 75 % 1024,3 hPa 0,0 l/m 0,0 km/h (0 Bft) NO 45 8,9 C 13,0 C 0,0 km/h (0 Bft)
18.07.2013 01:55 13,4 C 75 % 1024,3 hPa 0,0 l/m 0,2 km/h (0 Bft) NO 45 9,1 C 13,0 C 0,0 km/h (0 Bft)
18.07.2013 02:00 13,3 C 75 % 1024,6 hPa 0,0 l/m 0,2 km/h (0 Bft) NO 45 9,0 C 13,0 C 0,0 km/h (0 Bft)
18.07.2013 02:05 13,2 C 75 % 1024,6 hPa 0,0 l/m 0,2 km/h (0 Bft) NO 45 8,9 C 12,9 C 0,0 km/h (0 Bft)
18.07.2013 02:10 12,9 C 76 % 1024,6 hPa 0,0 l/m 0,0 km/h (0 Bft) N-NO 22 8,8 C 12,8 C 0,0 km/h (0 Bft)
18.07.2013 02:15 12,9 C 78 % 1024,6 hPa 0,0 l/m 0,0 km/h (0 Bft) N-NO 22 9,2 C 12,5 C 0,0 km/h (0 Bft)
18.07.2013 02:20 12,8 C 78 % 1024,6 hPa 0,0 l/m 0,0 km/h (0 Bft) NO 45 9,1 C 12,4 C 0,0 km/h (0 Bft)
18.07.2013 02:25 13,0 C 77 % 1024,6 hPa 0,0 l/m 0,6 km/h (0 Bft) NO 45 9,1 C 12,3 C 0,0 km/h (0 Bft)
18.07.2013 02:30 12,9 C 77 % 1024,6 hPa 0,0 l/m 0,6 km/h (0 Bft) NO 45 9,0 C 12,3 C 0,0 km/h (0 Bft)
18.07.2013 02:35 12,5 C 77 % 1024,6 hPa 0,0 l/m 0,2 km/h (0 Bft) NO 45 8,6 C 12,1 C 0,0 km/h (0 Bft)
18.07.2013 02:40 12,5 C 78 % 1024,6 hPa 0,0 l/m 0,0 km/h (0 Bft) NO 45 8,8 C 12,0 C 0,0 km/h (0 Bft)
18.07.2013 02:45 12,1 C 77 % 1024,6 hPa 0,0 l/m 0,0 km/h (0 Bft) NO 45 8,2 C 11,8 C 0,0 km/h (0 Bft)
18.07.2013 02:50 12,0 C 78 % 1024,6 hPa 0,0 l/m 0,0 km/h (0 Bft) NO 45 8,3 C 11,7 C 0,0 km/h (0 Bft)
18.07.2013 02:55 12,1 C 78 % 1024,6 hPa 0,0 l/m 0,0 km/h (0 Bft) NO 45 8,4 C 11,5 C 0,0 km/h (0 Bft)
18.07.2013 03:00 12,0 C 78 % 1024,4 hPa 0,0 l/m 0,0 km/h (0 Bft) NO 45 8,3 C 11,5 C 0,0 km/h (0 Bft)
18.07.2013 03:05 11,8 C 79 % 1024,4 hPa 0,0 l/m 0,0 km/h (0 Bft) N-NO 22 8,3 C 11,4 C 0,0 km/h (0 Bft)
18.07.2013 03:10 11,8 C 79 % 1024,4 hPa 0,0 l/m 0,0 km/h (0 Bft) N-NO 22 8,3 C 11,3 C 1,6 km/h (1 Bft)
18.07.2013 03:15 11,9 C 80 % 1024,4 hPa 0,0 l/m 0,2 km/h (0 Bft) NO 45 8,6 C 11,3 C 0,0 km/h (0 Bft)
18.07.2013 03:20 11,9 C 80 % 1024,4 hPa 0,0 l/m 0,3 km/h (0 Bft) NO 45 8,6 C 11,3 C 0,0 km/h (0 Bft)
18.07.2013 03:25 11,8 C 79 % 1024,4 hPa 0,0 l/m 0,0 km/h (0 Bft) NO 45 8,3 C 11,4 C 0,0 km/h (0 Bft)
18.07.2013 03:30 11,8 C 80 % 1024,4 hPa 0,0 l/m 0,0 km/h (0 Bft) NO 45 8,5 C 11,3 C 0,0 km/h (0 Bft)
18.07.2013 03:35 11,4 C 79 % 1024,4 hPa 0,0 l/m 0,0 km/h (0 Bft) NO 45 7,9 C 11,2 C 0,0 km/h (0 Bft)
18.07.2013 03:40 11,3 C 79 % 1024,2 hPa 0,0 l/m 0,0 km/h (0 Bft) NO 45 7,8 C 11,0 C 0,0 km/h (0 Bft)
18.07.2013 03:45 11,3 C 80 % 1024,2 hPa 0,0 l/m 0,0 km/h (0 Bft) NO 45 8,0 C 10,9 C 0,0 km/h (0 Bft)
18.07.2013 03:50 11,3 C 80 % 1024,2 hPa 0,0 l/m 0,0 km/h (0 Bft) NO 45 8,0 C 10,8 C 0,0 km/h (0 Bft)
18.07.2013 03:55 11,1 C 80 % 1024,2 hPa 0,0 l/m 0,0 km/h (0 Bft) NO 45 7,8 C 10,6 C 0,0 km/h (0 Bft)
18.07.2013 04:00 11,0 C 80 % 1024,6 hPa 0,0 l/m 0,0 km/h (0 Bft) NO 45 7,7 C 10,6 C 0,0 km/h (0 Bft)
18.07.2013 04:05 11,1 C 80 % 1024,6 hPa 0,0 l/m 0,0 km/h (0 Bft) NO 45 7,8 C 10,6 C 0,0 km/h (0 Bft)
18.07.2013 04:10 11,1 C 80 % 1024,6 hPa 0,0 l/m 0,0 km/h (0 Bft) NO 45 7,8 C 10,6 C 0,0 km/h (0 Bft)
18.07.2013 04:15 11,4 C 82 % 1024,6 hPa 0,0 l/m 0,0 km/h (0 Bft) NO 45 8,4 C 10,8 C 0,0 km/h (0 Bft)
18.07.2013 04:20 11,2 C 81 % 1024,0 hPa 0,0 l/m 0,0 km/h (0 Bft) NO 45 8,1 C 10,8 C 0,0 km/h (0 Bft)
18.07.2013 04:25 11,2 C 82 % 1024,0 hPa 0,0 l/m 0,0 km/h (0 Bft) NO 45 8,2 C 10,8 C 0,0 km/h (0 Bft)
18.07.2013 04:30 11,1 C 81 % 1024,0 hPa 0,0 l/m 0,0 km/h (0 Bft) NO 45 8,0 C 10,8 C 0,0 km/h (0 Bft)
18.07.2013 04:35 10,9 C 82 % 1024,0 hPa 0,0 l/m 0,0 km/h (0 Bft) NO 45 7,9 C 10,6 C 0,0 km/h (0 Bft)
18.07.2013 04:40 10,9 C 82 % 1023,8 hPa 0,0 l/m 0,0 km/h (0 Bft) NO 45 7,9 C 10,5 C 0,0 km/h (0 Bft)
18.07.2013 04:45 11,0 C 82 % 1023,8 hPa 0,0 l/m 0,0 km/h (0 Bft) NO 45 8,0 C 10,4 C 0,0 km/h (0 Bft)
18.07.2013 04:50 11,1 C 82 % 1023,8 hPa 0,0 l/m 0,0 km/h (0 Bft) NO 45 8,1 C 10,4 C 0,0 km/h (0 Bft)
18.07.2013 04:55 11,1 C 82 % 1023,8 hPa 0,0 l/m 0,0 km/h (0 Bft) NO 45 8,1 C 10,5 C 0,0 km/h (0 Bft)
18.07.2013 05:00 11,0 C 82 % 1023,8 hPa 0,0 l/m 0,0 km/h (0 Bft) NO 45 8,0 C 10,6 C 0,0 km/h (0 Bft)
18.07.2013 05:05 10,9 C 82 % 1023,8 hPa 0,0 l/m 0,0 km/h (0 Bft) NO 45 7,9 C 10,5 C 0,0 km/h (0 Bft)
18.07.2013 05:10 11,1 C 82 % 1023,8 hPa 0,0 l/m 0,0 km/h (0 Bft) NO 45 8,1 C 10,4 C 0,0 km/h (0 Bft)
18.07.2013 05:15 11,3 C 82 % 1023,8 hPa 0,0 l/m 0,0 km/h (0 Bft) NO 45 8,3 C 10,5 C 0,0 km/h (0 Bft)
18.07.2013 05:20 11,3 C 82 % 1023,9 hPa 0,0 l/m 0,0 km/h (0 Bft) NO 45 8,3 C 10,6 C 0,0 km/h (0 Bft)
18.07.2013 05:25 11,3 C 82 % 1023,9 hPa 0,0 l/m 0,0 km/h (0 Bft) NO 45 8,3 C 10,7 C 0,0 km/h (0 Bft)
18.07.2013 05:30 11,3 C 82 % 1023,9 hPa 0,0 l/m 0,0 km/h (0 Bft) NO 45 8,3 C 10,8 C 0,0 km/h (0 Bft)
18.07.2013 05:35 11,1 C 82 % 1023,9 hPa 0,0 l/m 0,0 km/h (0 Bft) NO 45 8,1 C 10,8 C 0,0 km/h (0 Bft)
18.07.2013 05:40 11,3 C 82 % 1024,1 hPa 0,0 l/m 0,0 km/h (0 Bft) NO 45 8,3 C 10,8 C 0,0 km/h (0 Bft)
18.07.2013 05:45 12,0 C 83 % 1024,1 hPa 0,0 l/m 0,0 km/h (0 Bft) NO 45 9,2 C 10,9 C 0,0 km/h (0 Bft)
18.07.2013 05:50 12,1 C 83 % 1024,1 hPa 0,0 l/m 0,0 km/h (0 Bft) N-NO 22 9,3 C 11,2 C 0,0 km/h (0 Bft)
18.07.2013 05:55 11,8 C 82 % 1024,1 hPa 0,0 l/m 0,0 km/h (0 Bft) NO 45 8,8 C 11,3 C 0,0 km/h (0 Bft)
18.07.2013 06:00 11,8 C 82 % 1023,9 hPa 0,0 l/m 0,0 km/h (0 Bft) NO 45 8,8 C 11,4 C 0,0 km/h (0 Bft)
18.07.2013 06:05 12,0 C 82 % 1023,9 hPa 0,0 l/m 0,0 km/h (0 Bft) NO 45 9,0 C 11,8 C 0,0 km/h (0 Bft)
18.07.2013 06:10 12,1 C 82 % 1023,9 hPa 0,0 l/m 0,0 km/h (0 Bft) NO 45 9,1 C 12,3 C 0,0 km/h (0 Bft)
18.07.2013 06:15 12,2 C 82 % 1023,9 hPa 0,0 l/m 0,0 km/h (0 Bft) NO 45 9,2 C 12,5 C 0,0 km/h (0 Bft)
18.07.2013 06:20 12,3 C 81 % 1024,1 hPa 0,0 l/m 0,0 km/h (0 Bft) NO 45 9,1 C 12,5 C 0,0 km/h (0 Bft)
18.07.2013 06:25 12,4 C 81 % 1024,1 hPa 0,0 l/m 0,0 km/h (0 Bft) NO 45 9,2 C 12,4 C 0,0 km/h (0 Bft)
18.07.2013 06:30 12,5 C 81 % 1024,1 hPa 0,0 l/m 0,0 km/h (0 Bft) NO 45 9,3 C 12,4 C 0,0 km/h (0 Bft)
18.07.2013 06:35 12,6 C 81 % 1024,1 hPa 0,0 l/m 0,0 km/h (0 Bft) NO 45 9,4 C 12,5 C 0,0 km/h (0 Bft)
18.07.2013 06:40 12,7 C 81 % 1023,9 hPa 0,0 l/m 0,0 km/h (0 Bft) NO 45 9,5 C 12,5 C 0,0 km/h (0 Bft)
18.07.2013 06:45 12,7 C 81 % 1023,9 hPa 0,0 l/m 0,0 km/h (0 Bft) NO 45 9,5 C 12,6 C 0,0 km/h (0 Bft)
18.07.2013 06:50 12,7 C 81 % 1023,9 hPa 0,0 l/m 0,0 km/h (0 Bft) NO 45 9,5 C 12,7 C 0,0 km/h (0 Bft)
18.07.2013 06:55 13,0 C 80 % 1023,9 hPa 0,0 l/m 0,0 km/h (0 Bft) NO 45 9,6 C 12,8 C 0,0 km/h (0 Bft)
18.07.2013 07:00 13,1 C 80 % 1023,9 hPa 0,0 l/m 0,0 km/h (0 Bft) NO 45 9,7 C 13,0 C 0,0 km/h (0 Bft)
18.07.2013 07:05 13,4 C 80 % 1023,9 hPa 0,0 l/m 0,0 km/h (0 Bft) O-NO 67 10,0 C 13,2 C 0,0 km/h (0 Bft)
18.07.2013 07:10 13,4 C 80 % 1023,9 hPa 0,0 l/m 0,0 km/h (0 Bft) NO 45 10,0 C 13,4 C 0,0 km/h (0 Bft)
18.07.2013 07:15 13,7 C 80 % 1023,9 hPa 0,0 l/m 0,0 km/h (0 Bft) NO 45 10,3 C 13,6 C 0,0 km/h (0 Bft)
18.07.2013 07:20 15,0 C 79 % 1024,1 hPa 0,0 l/m 0,0 km/h (0 Bft) NO 45 11,4 C 13,9 C 0,0 km/h (0 Bft)
18.07.2013 07:25 18,8 C 73 % 1024,1 hPa 0,0 l/m 0,0 km/h (0 Bft) NO 45 13,9 C 16,4 C 0,0 km/h (0 Bft)
18.07.2013 07:30 18,6 C 69 % 1024,1 hPa 0,0 l/m 0,0 km/h (0 Bft) NO 45 12,8 C 18,2 C 0,0 km/h (0 Bft)
18.07.2013 07:35 20,2 C 62 % 1024,1 hPa 0,0 l/m 0,0 km/h (0 Bft) NO 45 12,7 C 20,2 C 0,0 km/h (0 Bft)
18.07.2013 07:40 20,8 C 62 % 1024,0 hPa 0,0 l/m 0,0 km/h (0 Bft) N-NO 22 13,2 C 21,6 C 0,0 km/h (0 Bft)
18.07.2013 07:45 20,5 C 61 % 1024,0 hPa 0,0 l/m 0,0 km/h (0 Bft) NO 45 12,7 C 22,3 C 0,0 km/h (0 Bft)
18.07.2013 07:50 21,6 C 58 % 1024,0 hPa 0,0 l/m 0,0 km/h (0 Bft) NO 45 13,0 C 23,0 C 0,0 km/h (0 Bft)
18.07.2013 07:55 22,3 C 57 % 1024,0 hPa 0,0 l/m 0,0 km/h (0 Bft) NO 45 13,4 C 24,5 C 0,0 km/h (0 Bft)
18.07.2013 08:00 22,6 C 57 % 1024,1 hPa 0,0 l/m 0,0 km/h (0 Bft) NO 45 13,6 C 24,9 C 0,0 km/h (0 Bft)
18.07.2013 08:05 23,5 C 57 % 1024,1 hPa 0,0 l/m 0,0 km/h (0 Bft) NO 45 14,5 C 25,2 C 0,0 km/h (0 Bft)
18.07.2013 08:10 23,5 C 53 % 1024,1 hPa 0,0 l/m 0,2 km/h (0 Bft) NO 45 13,4 C 25,4 C 0,0 km/h (0 Bft)
18.07.2013 08:15 23,9 C 54 % 1024,1 hPa 0,0 l/m 0,2 km/h (0 Bft) N-NO 22 14,0 C 25,7 C 0,0 km/h (0 Bft)
18.07.2013 08:20 23,3 C 53 % 1023,9 hPa 0,0 l/m 0,2 km/h (0 Bft) NO 45 13,2 C 25,6 C 0,0 km/h (0 Bft)
18.07.2013 08:25 24,3 C 54 % 1023,9 hPa 0,0 l/m 0,2 km/h (0 Bft) NO 45 14,4 C 25,7 C 0,0 km/h (0 Bft)
18.07.2013 08:30 23,3 C 54 % 1023,9 hPa 0,0 l/m 0,0 km/h (0 Bft) N-NO 22 13,5 C 25,7 C 0,0 km/h (0 Bft)
18.07.2013 08:35 23,1 C 53 % 1023,9 hPa 0,0 l/m 0,2 km/h (0 Bft) NO 45 13,0 C 25,3 C 0,0 km/h (0 Bft)
18.07.2013 08:40 21,1 C 57 % 1024,1 hPa 0,0 l/m 0,2 km/h (0 Bft) NO 45 12,2 C 24,4 C 0,0 km/h (0 Bft)
18.07.2013 08:45 19,9 C 60 % 1024,1 hPa 0,0 l/m 0,0 km/h (0 Bft) O-NO 67 11,9 C 23,0 C 1,8 km/h (1 Bft)
18.07.2013 08:50 19,3 C 60 % 1024,1 hPa 0,0 l/m 0,6 km/h (0 Bft) NO 45 11,3 C 21,9 C 2,4 km/h (1 Bft)
18.07.2013 08:55 19,7 C 62 % 1024,1 hPa 0,0 l/m 1,8 km/h (1 Bft) NO 45 12,2 C 20,9 C 2,1 km/h (1 Bft)
18.07.2013 09:00 20,4 C 62 % 1024,3 hPa 0,0 l/m 2,1 km/h (1 Bft) NO 45 12,9 C 21,0 C 2,6 km/h (1 Bft)
18.07.2013 09:05 22,8 C 59 % 1024,3 hPa 0,0 l/m 1,1 km/h (1 Bft) NO 45 14,4 C 21,7 C 0,0 km/h (0 Bft)
18.07.2013 09:10 24,4 C 55 % 1024,3 hPa 0,0 l/m 0,5 km/h (0 Bft) NO 45 14,8 C 23,5 C 0,0 km/h (0 Bft)
18.07.2013 09:15 25,5 C 52 % 1024,3 hPa 0,0 l/m 0,3 km/h (0 Bft) N-NO 22 14,9 C 25,8 C 1,6 km/h (1 Bft)
18.07.2013 09:20 25,4 C 49 % 1024,2 hPa 0,0 l/m 0,6 km/h (0 Bft) NO 45 13,9 C 26,1 C 0,0 km/h (0 Bft)
18.07.2013 09:25 26,0 C 48 % 1024,2 hPa 0,0 l/m 0,8 km/h (0 Bft) N 360 14,1 C 27,1 C 3,4 km/h (1 Bft)
18.07.2013 09:30 26,1 C 47 % 1024,2 hPa 0,0 l/m 1,1 km/h (1 Bft) N-NO 22 13,9 C 26,8 C 1,6 km/h (1 Bft)
18.07.2013 09:35 25,5 C 46 % 1024,2 hPa 0,0 l/m 1,9 km/h (1 Bft) NO 45 13,0 C 26,7 C 6,0 km/h (2 Bft)
18.07.2013 09:40 26,1 C 42 % 1024,4 hPa 0,0 l/m 1,8 km/h (1 Bft) N-NO 22 12,2 C 27,1 C 3,1 km/h (1 Bft)
18.07.2013 09:45 25,4 C 43 % 1024,4 hPa 0,0 l/m 2,3 km/h (1 Bft) N-NO 22 11,9 C 26,7 C 5,0 km/h (1 Bft)
18.07.2013 09:50 25,6 C 44 % 1024,4 hPa 0,0 l/m 2,7 km/h (1 Bft) N-NW 337 12,4 C 26,8 C 3,1 km/h (1 Bft)
18.07.2013 09:55 25,7 C 45 % 1024,4 hPa 0,0 l/m 2,9 km/h (1 Bft) N 360 12,9 C 26,7 C 3,9 km/h (1 Bft)
18.07.2013 10:00 25,1 C 43 % 1024,4 hPa 0,0 l/m 3,5 km/h (1 Bft) N-NO 22 11,6 C 26,5 C 3,9 km/h (1 Bft)
18.07.2013 10:05 25,7 C 44 % 1024,4 hPa 0,0 l/m 3,2 km/h (1 Bft) SO 135 12,5 C 26,7 C 7,7 km/h (2 Bft)
18.07.2013 10:10 25,6 C 43 % 1024,4 hPa 0,0 l/m 2,7 km/h (1 Bft) W-SW 247 12,1 C 26,9 C 2,9 km/h (1 Bft)
18.07.2013 10:15 25,5 C 43 % 1024,4 hPa 0,0 l/m 3,2 km/h (1 Bft) N-NW 337 12,0 C 26,6 C 4,2 km/h (1 Bft)
18.07.2013 10:20 25,5 C 43 % 1024,5 hPa 0,0 l/m 3,9 km/h (1 Bft) N-NW 337 12,0 C 26,6 C 5,3 km/h (1 Bft)
18.07.2013 10:25 25,5 C 43 % 1024,5 hPa 0,0 l/m 4,0 km/h (1 Bft) N-NW 337 12,0 C 26,7 C 5,3 km/h (1 Bft)
18.07.2013 10:30 25,3 C 41 % 1024,5 hPa 0,0 l/m 4,0 km/h (1 Bft) NW 315 11,1 C 26,6 C 4,2 km/h (1 Bft)
18.07.2013 10:35 25,3 C 43 % 1024,5 hPa 0,0 l/m 5,0 km/h (1 Bft) NW 315 11,8 C 26,4 C 9,8 km/h (2 Bft)
18.07.2013 10:40 25,8 C 40 % 1024,6 hPa 0,0 l/m 5,1 km/h (1 Bft) S 180 11,2 C 26,3 C 6,8 km/h (2 Bft)
18.07.2013 10:45 25,7 C 43 % 1024,6 hPa 0,0 l/m 4,2 km/h (1 Bft) W 270 12,2 C 26,6 C 5,1 km/h (1 Bft)
18.07.2013 10:50 23,5 C 46 % 1024,6 hPa 0,0 l/m 3,7 km/h (1 Bft) N 360 11,2 C 25,9 C 4,5 km/h (1 Bft)
18.07.2013 10:55 25,2 C 43 % 1024,6 hPa 0,0 l/m 4,0 km/h (1 Bft) W-NW 292 11,7 C 25,6 C 7,4 km/h (2 Bft)
18.07.2013 11:00 25,5 C 43 % 1024,6 hPa 0,0 l/m 4,3 km/h (1 Bft) W 270 12,0 C 26,5 C 5,8 km/h (2 Bft)
18.07.2013 11:05 25,9 C 43 % 1024,6 hPa 0,0 l/m 5,0 km/h (1 Bft) N 360 12,3 C 26,5 C 11,9 km/h (2 Bft)
18.07.2013 11:10 26,0 C 40 % 1024,6 hPa 0,0 l/m 5,5 km/h (1 Bft) N-NW 337 11,3 C 26,8 C 6,6 km/h (2 Bft)
18.07.2013 11:15 26,1 C 40 % 1024,6 hPa 0,0 l/m 4,7 km/h (1 Bft) N-NW 337 11,4 C 27,0 C 4,0 km/h (1 Bft)
18.07.2013 11:20 25,9 C 41 % 1024,7 hPa 0,0 l/m 5,3 km/h (1 Bft) N-NW 337 11,6 C 26,8 C 6,1 km/h (2 Bft)
18.07.2013 11:25 26,8 C 40 % 1024,7 hPa 0,0 l/m 4,5 km/h (1 Bft) W 270 12,1 C 27,4 C 3,9 km/h (1 Bft)
18.07.2013 11:30 26,9 C 40 % 1024,7 hPa 0,0 l/m 4,0 km/h (1 Bft) N-NO 22 12,1 C 27,9 C 7,7 km/h (2 Bft)
18.07.2013 11:35 26,5 C 41 % 1024,7 hPa 0,0 l/m 5,0 km/h (1 Bft) O-SO 112 12,2 C 27,9 C 14,6 km/h (3 Bft)
18.07.2013 11:40 26,6 C 40 % 1024,7 hPa 0,0 l/m 5,6 km/h (1 Bft) W-NW 292 11,9 C 27,7 C 4,8 km/h (1 Bft)
18.07.2013 11:45 25,2 C 46 % 1024,7 hPa 0,0 l/m 5,1 km/h (1 Bft) N 360 12,7 C 26,8 C 3,9 km/h (1 Bft)
18.07.2013 11:50 25,3 C 46 % 1024,7 hPa 0,0 l/m 4,5 km/h (1 Bft) W-NW 292 12,8 C 26,5 C 7,1 km/h (2 Bft)
18.07.2013 11:55 25,6 C 47 % 1024,7 hPa 0,0 l/m 4,3 km/h (1 Bft) O-NO 67 13,4 C 26,3 C 5,3 km/h (1 Bft)
18.07.2013 12:00 25,5 C 48 % 1024,7 hPa 0,0 l/m 4,8 km/h (1 Bft) O 90 13,7 C 26,3 C 2,9 km/h (1 Bft)
18.07.2013 12:05 24,0 C 49 % 1024,7 hPa 0,0 l/m 4,2 km/h (1 Bft) NO 45 12,6 C 25,9 C 3,4 km/h (1 Bft)
18.07.2013 12:10 24,1 C 50 % 1024,7 hPa 0,0 l/m 3,2 km/h (1 Bft) N 360 13,0 C 25,7 C 7,6 km/h (2 Bft)
18.07.2013 12:15 23,9 C 50 % 1024,7 hPa 0,0 l/m 2,4 km/h (1 Bft) N-NW 337 12,8 C 25,7 C 0,0 km/h (0 Bft)
18.07.2013 12:20 24,5 C 50 % 1024,5 hPa 0,0 l/m 2,3 km/h (1 Bft) O-NO 67 13,4 C 25,8 C 3,4 km/h (1 Bft)
18.07.2013 12:25 26,1 C 48 % 1024,5 hPa 0,0 l/m 1,8 km/h (1 Bft) S 180 14,2 C 26,4 C 5,5 km/h (1 Bft)
18.07.2013 12:30 26,2 C 43 % 1024,5 hPa 0,0 l/m 3,7 km/h (1 Bft) S-SW 202 12,6 C 27,4 C 2,6 km/h (1 Bft)
18.07.2013 12:35 27,7 C 40 % 1024,5 hPa 0,0 l/m 5,6 km/h (1 Bft) W 270 12,9 C 28,3 C 7,9 km/h (2 Bft)
18.07.2013 12:40 27,9 C 39 % 1024,6 hPa 0,0 l/m 5,8 km/h (2 Bft) N 360 12,6 C 28,9 C 3,9 km/h (1 Bft)
18.07.2013 12:45 27,5 C 38 % 1024,6 hPa 0,0 l/m 6,3 km/h (2 Bft) S 180 11,9 C 29,0 C 7,2 km/h (2 Bft)
18.07.2013 12:50 28,1 C 38 % 1024,6 hPa 0,0 l/m 6,4 km/h (2 Bft) NW 315 12,4 C 29,1 C 4,8 km/h (1 Bft)
18.07.2013 12:55 28,0 C 38 % 1024,6 hPa 0,0 l/m 6,8 km/h (2 Bft) N 360 12,3 C 29,5 C 4,7 km/h (1 Bft)
18.07.2013 13:00 26,3 C 41 % 1024,7 hPa 0,0 l/m 6,6 km/h (2 Bft) N-NW 337 12,0 C 29,1 C 9,7 km/h (2 Bft)
18.07.2013 13:05 26,0 C 42 % 1024,7 hPa 0,0 l/m 6,1 km/h (2 Bft) N 360 12,1 C 27,8 C 10,6 km/h (2 Bft)
18.07.2013 13:10 25,5 C 42 % 1024,7 hPa 0,0 l/m 5,6 km/h (1 Bft) S-SW 202 11,6 C 27,2 C 7,2 km/h (2 Bft)
18.07.2013 13:15 25,9 C 43 % 1024,7 hPa 0,0 l/m 6,0 km/h (2 Bft) W-NW 292 12,3 C 26,9 C 7,6 km/h (2 Bft)
18.07.2013 13:20 25,7 C 43 % 1024,7 hPa 0,0 l/m 5,0 km/h (1 Bft) W-NW 292 12,2 C 26,9 C 5,1 km/h (1 Bft)
18.07.2013 13:25 26,2 C 42 % 1024,7 hPa 0,0 l/m 3,5 km/h (1 Bft) N-NW 337 12,3 C 27,5 C 6,9 km/h (2 Bft)
18.07.2013 13:30 26,4 C 42 % 1024,7 hPa 0,0 l/m 4,3 km/h (1 Bft) N-NW 337 12,4 C 28,0 C 10,1 km/h (2 Bft)
18.07.2013 13:35 26,3 C 39 % 1024,7 hPa 0,0 l/m 6,6 km/h (2 Bft) N-NW 337 11,2 C 28,0 C 8,7 km/h (2 Bft)
18.07.2013 13:40 26,6 C 38 % 1024,5 hPa 0,0 l/m 7,1 km/h (2 Bft) NO 45 11,1 C 28,0 C 6,1 km/h (2 Bft)
18.07.2013 13:45 27,3 C 36 % 1024,5 hPa 0,0 l/m 5,8 km/h (2 Bft) N-NW 337 10,9 C 29,0 C 12,2 km/h (2 Bft)
18.07.2013 13:50 27,8 C 37 % 1024,5 hPa 0,0 l/m 6,4 km/h (2 Bft) W 270 11,8 C 29,2 C 15,3 km/h (3 Bft)
18.07.2013 13:55 27,5 C 35 % 1024,5 hPa 0,0 l/m 8,7 km/h (2 Bft) N-NO 22 10,7 C 28,8 C 16,4 km/h (3 Bft)
18.07.2013 14:00 27,3 C 36 % 1024,6 hPa 0,0 l/m 9,2 km/h (2 Bft) N 360 10,9 C 28,6 C 5,5 km/h (1 Bft)
18.07.2013 14:05 28,2 C 35 % 1024,6 hPa 0,0 l/m 7,1 km/h (2 Bft) W 270 11,3 C 29,0 C 8,0 km/h (2 Bft)
18.07.2013 14:10 27,4 C 36 % 1024,6 hPa 0,0 l/m 6,0 km/h (2 Bft) N-NW 337 11,0 C 29,0 C 3,5 km/h (1 Bft)
18.07.2013 14:15 27,4 C 35 % 1024,6 hPa 0,0 l/m 7,6 km/h (2 Bft) NO 45 10,6 C 28,7 C 10,5 km/h (2 Bft)
18.07.2013 14:20 27,7 C 37 % 1024,4 hPa 0,0 l/m 7,2 km/h (2 Bft) W-SW 247 11,7 C 28,7 C 8,9 km/h (2 Bft)
18.07.2013 14:25 27,7 C 35 % 1024,4 hPa 0,0 l/m 6,4 km/h (2 Bft) NO 45 10,8 C 29,2 C 8,0 km/h (2 Bft)
18.07.2013 14:30 27,4 C 34 % 1024,4 hPa 0,0 l/m 6,8 km/h (2 Bft) W 270 10,1 C 29,1 C 9,8 km/h (2 Bft)
18.07.2013 14:35 26,7 C 36 % 1024,4 hPa 0,0 l/m 7,6 km/h (2 Bft) N 360 10,4 C 28,7 C 16,9 km/h (3 Bft)
18.07.2013 14:40 27,5 C 36 % 1024,4 hPa 0,0 l/m 6,8 km/h (2 Bft) N-NW 337 11,1 C 28,5 C 5,6 km/h (1 Bft)
18.07.2013 14:45 26,7 C 39 % 1024,4 hPa 0,0 l/m 5,3 km/h (1 Bft) N-NO 22 11,6 C 28,2 C 4,8 km/h (1 Bft)
18.07.2013 14:50 27,8 C 36 % 1024,4 hPa 0,0 l/m 5,8 km/h (2 Bft) NW 315 11,3 C 28,6 C 11,6 km/h (2 Bft)
18.07.2013 14:55 27,1 C 36 % 1024,4 hPa 0,0 l/m 7,4 km/h (2 Bft) NO 45 10,7 C 28,7 C 7,9 km/h (2 Bft)
18.07.2013 15:00 28,0 C 35 % 1024,3 hPa 0,0 l/m 7,4 km/h (2 Bft) N 360 11,1 C 28,7 C 15,0 km/h (3 Bft)
18.07.2013 15:05 27,7 C 36 % 1024,3 hPa 0,0 l/m 7,4 km/h (2 Bft) W-NW 292 11,3 C 29,1 C 18,5 km/h (3 Bft)
18.07.2013 15:10 26,8 C 38 % 1024,3 hPa 0,0 l/m 6,9 km/h (2 Bft) W-SW 247 11,3 C 28,8 C 8,2 km/h (2 Bft)
18.07.2013 15:15 27,0 C 38 % 1024,3 hPa 0,0 l/m 5,6 km/h (1 Bft) W-NW 292 11,5 C 28,9 C 10,0 km/h (2 Bft)
18.07.2013 15:20 27,5 C 37 % 1024,2 hPa 0,0 l/m 6,1 km/h (2 Bft) N-NW 337 11,5 C 28,8 C 10,1 km/h (2 Bft)
18.07.2013 15:25 26,8 C 38 % 1024,2 hPa 0,0 l/m 7,9 km/h (2 Bft) N 360 11,3 C 28,6 C 11,6 km/h (2 Bft)
18.07.2013 15:30 26,3 C 39 % 1024,2 hPa 0,0 l/m 8,4 km/h (2 Bft) N-NW 337 11,2 C 28,0 C 11,9 km/h (2 Bft)
18.07.2013 15:35 25,8 C 42 % 1024,2 hPa 0,0 l/m 6,0 km/h (2 Bft) W-NW 292 11,9 C 27,8 C 9,7 km/h (2 Bft)
18.07.2013 15:40 25,6 C 41 % 1024,2 hPa 0,0 l/m 5,6 km/h (1 Bft) W-NW 292 11,4 C 27,5 C 8,2 km/h (2 Bft)
18.07.2013 15:45 25,3 C 45 % 1024,2 hPa 0,0 l/m 4,8 km/h (1 Bft) NO 45 12,5 C 27,2 C 5,1 km/h (1 Bft)
18.07.2013 15:50 25,8 C 45 % 1024,2 hPa 0,0 l/m 3,7 km/h (1 Bft) N-NW 337 13,0 C 27,4 C 4,7 km/h (1 Bft)
18.07.2013 15:55 26,4 C 43 % 1024,2 hPa 0,0 l/m 4,2 km/h (1 Bft) N-NW 337 12,8 C 28,0 C 6,4 km/h (2 Bft)
18.07.2013 16:00 27,2 C 39 % 1024,1 hPa 0,0 l/m 4,7 km/h (1 Bft) S-SW 202 12,0 C 28,6 C 3,5 km/h (1 Bft)
18.07.2013 16:05 27,3 C 39 % 1024,1 hPa 0,0 l/m 6,0 km/h (2 Bft) NW 315 12,1 C 29,4 C 10,1 km/h (2 Bft)
18.07.2013 16:10 27,8 C 38 % 1024,1 hPa 0,0 l/m 6,4 km/h (2 Bft) W-NW 292 12,2 C 30,0 C 10,8 km/h (2 Bft)
18.07.2013 16:15 27,5 C 36 % 1024,1 hPa 0,0 l/m 6,9 km/h (2 Bft) W 270 11,1 C 30,2 C 9,5 km/h (2 Bft)
18.07.2013 16:20 27,3 C 37 % 1023,9 hPa 0,0 l/m 7,4 km/h (2 Bft) N-NW 337 11,3 C 29,9 C 2,7 km/h (1 Bft)
18.07.2013 16:25 26,3 C 39 % 1023,9 hPa 0,0 l/m 6,0 km/h (2 Bft) W-NW 292 11,2 C 29,5 C 5,5 km/h (1 Bft)
18.07.2013 16:30 25,8 C 39 % 1023,9 hPa 0,0 l/m 5,5 km/h (1 Bft) N-NW 337 10,8 C 29,0 C 5,3 km/h (1 Bft)
18.07.2013 16:35 26,2 C 37 % 1023,9 hPa 0,0 l/m 6,0 km/h (2 Bft) N 360 10,3 C 28,3 C 13,0 km/h (3 Bft)
18.07.2013 16:40 26,0 C 39 % 1023,6 hPa 0,0 l/m 5,6 km/h (1 Bft) W-NW 292 11,0 C 28,5 C 6,6 km/h (2 Bft)
18.07.2013 16:45 25,7 C 40 % 1023,6 hPa 0,0 l/m 5,3 km/h (1 Bft) NW 315 11,1 C 28,2 C 7,7 km/h (2 Bft)
18.07.2013 16:50 25,6 C 40 % 1023,6 hPa 0,0 l/m 4,7 km/h (1 Bft) O 90 11,0 C 28,4 C 1,8 km/h (1 Bft)
18.07.2013 16:55 25,3 C 43 % 1023,6 hPa 0,0 l/m 4,8 km/h (1 Bft) N-NW 337 11,8 C 27,8 C 6,9 km/h (2 Bft)
18.07.2013 17:00 25,3 C 42 % 1023,6 hPa 0,0 l/m 4,8 km/h (1 Bft) N-NO 22 11,5 C 27,5 C 6,1 km/h (2 Bft)
18.07.2013 17:05 25,1 C 42 % 1023,6 hPa 0,0 l/m 5,1 km/h (1 Bft) W-NW 292 11,3 C 27,1 C 4,8 km/h (1 Bft)
18.07.2013 17:10 25,1 C 42 % 1023,6 hPa 0,0 l/m 5,0 km/h (1 Bft) N-NO 22 11,3 C 26,8 C 5,6 km/h (1 Bft)
18.07.2013 17:15 25,0 C 41 % 1023,6 hPa 0,0 l/m 5,1 km/h (1 Bft) N 360 10,8 C 26,7 C 2,7 km/h (1 Bft)
18.07.2013 17:20 25,2 C 43 % 1023,4 hPa 0,0 l/m 4,5 km/h (1 Bft) N 360 11,7 C 26,8 C 3,2 km/h (1 Bft)
18.07.2013 17:25 26,0 C 40 % 1023,4 hPa 0,0 l/m 3,7 km/h (1 Bft) N-NW 337 11,3 C 27,7 C 1,9 km/h (1 Bft)
18.07.2013 17:30 26,0 C 40 % 1023,4 hPa 0,0 l/m 4,2 km/h (1 Bft) NO 45 11,3 C 29,0 C 6,6 km/h (2 Bft)
18.07.2013 17:35 25,7 C 40 % 1023,4 hPa 0,0 l/m 5,1 km/h (1 Bft) N-NO 22 11,1 C 28,5 C 8,9 km/h (2 Bft)
18.07.2013 17:40 25,3 C 41 % 1023,2 hPa 0,0 l/m 5,5 km/h (1 Bft) N-NO 22 11,1 C 28,3 C 10,3 km/h (2 Bft)
18.07.2013 17:45 25,6 C 42 % 1023,2 hPa 0,0 l/m 5,1 km/h (1 Bft) W-NW 292 11,7 C 28,4 C 6,4 km/h (2 Bft)
18.07.2013 17:50 25,9 C 40 % 1023,2 hPa 0,0 l/m 6,0 km/h (2 Bft) N-NW 337 11,3 C 29,2 C 4,5 km/h (1 Bft)
18.07.2013 17:55 26,0 C 40 % 1023,2 hPa 0,0 l/m 6,0 km/h (2 Bft) W 270 11,3 C 30,3 C 7,7 km/h (2 Bft)
18.07.2013 18:00 25,7 C 39 % 1023,4 hPa 0,0 l/m 5,3 km/h (1 Bft) W-NW 292 10,7 C 29,8 C 9,8 km/h (2 Bft)
18.07.2013 18:05 25,5 C 39 % 1023,4 hPa 0,0 l/m 6,4 km/h (2 Bft) SO 135 10,5 C 29,5 C 7,1 km/h (2 Bft)
18.07.2013 18:10 25,4 C 42 % 1023,4 hPa 0,0 l/m 6,3 km/h (2 Bft) NO 45 11,5 C 29,6 C 4,8 km/h (1 Bft)
18.07.2013 18:15 25,4 C 41 % 1023,4 hPa 0,0 l/m 5,1 km/h (1 Bft) N-NW 337 11,2 C 29,9 C 9,7 km/h (2 Bft)
18.07.2013 18:20 25,3 C 41 % 1023,3 hPa 0,0 l/m 4,3 km/h (1 Bft) N-NW 337 11,1 C 30,3 C 5,8 km/h (2 Bft)
18.07.2013 18:25 25,4 C 40 % 1023,3 hPa 0,0 l/m 4,7 km/h (1 Bft) N-NW 337 10,8 C 30,1 C 10,9 km/h (2 Bft)
18.07.2013 18:30 25,3 C 39 % 1023,3 hPa 0,0 l/m 6,0 km/h (2 Bft) W-NW 292 10,3 C 29,5 C 3,1 km/h (1 Bft)
18.07.2013 18:35 25,5 C 38 % 1023,3 hPa 0,0 l/m 6,6 km/h (2 Bft) N-NW 337 10,1 C 29,6 C 9,0 km/h (2 Bft)
18.07.2013 18:40 25,9 C 38 % 1023,5 hPa 0,0 l/m 5,5 km/h (1 Bft) W 270 10,5 C 30,0 C 3,2 km/h (1 Bft)
18.07.2013 18:45 26,1 C 37 % 1023,5 hPa 0,0 l/m 5,1 km/h (1 Bft) NW 315 10,3 C 30,8 C 9,3 km/h (2 Bft)
18.07.2013 18:50 25,9 C 37 % 1023,5 hPa 0,0 l/m 5,6 km/h (1 Bft) N-NW 337 10,1 C 30,7 C 9,3 km/h (2 Bft)
18.07.2013 18:55 25,9 C 38 % 1023,5 hPa 0,0 l/m 5,1 km/h (1 Bft) S-SW 202 10,5 C 31,0 C 7,4 km/h (2 Bft)
18.07.2013 19:00 25,9 C 38 % 1023,6 hPa 0,0 l/m 4,8 km/h (1 Bft) N-NW 337 10,5 C 31,0 C 8,9 km/h (2 Bft)
18.07.2013 19:05 25,9 C 37 % 1023,6 hPa 0,0 l/m 5,1 km/h (1 Bft) W-SW 247 10,1 C 30,9 C 4,2 km/h (1 Bft)
18.07.2013 19:10 25,5 C 36 % 1023,6 hPa 0,0 l/m 5,5 km/h (1 Bft) N-NW 337 9,3 C 30,0 C 11,1 km/h (2 Bft)
18.07.2013 19:15 25,4 C 38 % 1023,6 hPa 0,0 l/m 6,1 km/h (2 Bft) W-SW 247 10,0 C 29,1 C 3,9 km/h (1 Bft)
18.07.2013 19:20 25,5 C 39 % 1023,5 hPa 0,0 l/m 5,5 km/h (1 Bft) N-NO 22 10,5 C 29,6 C 15,0 km/h (3 Bft)
18.07.2013 19:25 25,3 C 39 % 1023,5 hPa 0,0 l/m 5,6 km/h (1 Bft) N-NW 337 10,3 C 29,6 C 12,6 km/h (3 Bft)
18.07.2013 19:30 25,2 C 41 % 1023,5 hPa 0,0 l/m 6,3 km/h (2 Bft) N 360 11,0 C 29,5 C 6,1 km/h (2 Bft)
18.07.2013 19:35 25,3 C 41 % 1023,5 hPa 0,0 l/m 4,8 km/h (1 Bft) N 360 11,1 C 29,6 C 6,6 km/h (2 Bft)
18.07.2013 19:40 25,1 C 42 % 1023,6 hPa 0,0 l/m 4,3 km/h (1 Bft) NW 315 11,3 C 29,5 C 5,8 km/h (2 Bft)
18.07.2013 19:45 24,6 C 41 % 1023,6 hPa 0,0 l/m 4,5 km/h (1 Bft) N 360 10,5 C 29,2 C 10,8 km/h (2 Bft)
18.07.2013 19:50 24,5 C 43 % 1023,6 hPa 0,0 l/m 4,8 km/h (1 Bft) O-NO 67 11,1 C 28,7 C 7,7 km/h (2 Bft)
18.07.2013 19:55 24,1 C 43 % 1023,6 hPa 0,0 l/m 5,5 km/h (1 Bft) NO 45 10,7 C 27,4 C 9,3 km/h (2 Bft)
18.07.2013 20:00 24,0 C 43 % 1023,8 hPa 0,0 l/m 5,0 km/h (1 Bft) O-SO 112 10,6 C 26,4 C 2,4 km/h (1 Bft)
18.07.2013 20:05 23,7 C 45 % 1023,8 hPa 0,0 l/m 3,5 km/h (1 Bft) W-NW 292 11,1 C 25,6 C 6,9 km/h (2 Bft)
18.07.2013 20:10 23,6 C 44 % 1023,8 hPa 0,0 l/m 3,2 km/h (1 Bft) NO 45 10,6 C 25,3 C 2,7 km/h (1 Bft)
18.07.2013 20:15 23,4 C 46 % 1023,8 hPa 0,0 l/m 2,7 km/h (1 Bft) NO 45 11,1 C 24,8 C 2,1 km/h (1 Bft)
18.07.2013 20:20 23,3 C 45 % 1023,7 hPa 0,0 l/m 2,3 km/h (1 Bft) NO 45 10,7 C 24,7 C 1,9 km/h (1 Bft)
18.07.2013 20:25 23,1 C 46 % 1023,7 hPa 0,0 l/m 2,3 km/h (1 Bft) N 360 10,8 C 24,4 C 3,2 km/h (1 Bft)
18.07.2013 20:30 23,0 C 46 % 1023,7 hPa 0,0 l/m 1,6 km/h (1 Bft) NO 45 10,7 C 24,2 C 1,9 km/h (1 Bft)
18.07.2013 20:35 22,8 C 48 % 1023,7 hPa 0,0 l/m 1,6 km/h (1 Bft) NO 45 11,2 C 23,9 C 2,1 km/h (1 Bft)
18.07.2013 20:40 22,6 C 47 % 1023,8 hPa 0,0 l/m 1,8 km/h (1 Bft) NO 45 10,7 C 23,7 C 0,0 km/h (0 Bft)
18.07.2013 20:45 22,3 C 48 % 1023,8 hPa 0,0 l/m 1,0 km/h (0 Bft) O-NO 67 10,8 C 23,4 C 1,8 km/h (1 Bft)
18.07.2013 20:50 22,1 C 48 % 1023,8 hPa 0,0 l/m 0,3 km/h (0 Bft) O-SO 112 10,6 C 23,2 C 0,0 km/h (0 Bft)
18.07.2013 20:55 21,8 C 49 % 1023,8 hPa 0,0 l/m 0,3 km/h (0 Bft) NO 45 10,6 C 22,9 C 2,9 km/h (1 Bft)
18.07.2013 21:00 21,7 C 49 % 1023,9 hPa 0,0 l/m 0,6 km/h (0 Bft) O 90 10,5 C 22,6 C 2,1 km/h (1 Bft)
18.07.2013 21:05 21,4 C 49 % 1023,9 hPa 0,0 l/m 1,3 km/h (1 Bft) O 90 10,2 C 22,2 C 2,9 km/h (1 Bft)
18.07.2013 21:10 21,3 C 51 % 1023,9 hPa 0,0 l/m 1,8 km/h (1 Bft) O-NO 67 10,7 C 21,9 C 3,7 km/h (1 Bft)
18.07.2013 21:15 20,9 C 52 % 1023,9 hPa 0,0 l/m 2,7 km/h (1 Bft) NO 45 10,7 C 21,5 C 3,4 km/h (1 Bft)
18.07.2013 21:20 20,7 C 53 % 1023,9 hPa 0,0 l/m 2,7 km/h (1 Bft) NO 45 10,8 C 21,3 C 2,6 km/h (1 Bft)
18.07.2013 21:25 20,4 C 54 % 1023,9 hPa 0,0 l/m 2,7 km/h (1 Bft) O 90 10,8 C 20,8 C 2,4 km/h (1 Bft)
18.07.2013 21:30 20,3 C 54 % 1023,9 hPa 0,0 l/m 2,7 km/h (1 Bft) O-NO 67 10,7 C 20,5 C 3,4 km/h (1 Bft)
18.07.2013 21:35 20,2 C 55 % 1023,9 hPa 0,0 l/m 2,1 km/h (1 Bft) O 90 10,9 C 20,3 C 2,3 km/h (1 Bft)
18.07.2013 21:40 20,2 C 55 % 1024,1 hPa 0,0 l/m 1,1 km/h (1 Bft) NO 45 10,9 C 20,0 C 0,0 km/h (0 Bft)
18.07.2013 21:45 19,4 C 58 % 1024,1 hPa 0,0 l/m 0,2 km/h (0 Bft) O-NO 67 10,9 C 19,7 C 0,0 km/h (0 Bft)
18.07.2013 21:50 19,6 C 58 % 1024,1 hPa 0,0 l/m 0,2 km/h (0 Bft) O-NO 67 11,1 C 19,6 C 1,8 km/h (1 Bft)
18.07.2013 21:55 19,7 C 57 % 1024,1 hPa 0,0 l/m 0,8 km/h (0 Bft) NO 45 10,9 C 19,4 C 1,6 km/h (1 Bft)
18.07.2013 22:00 19,7 C 57 % 1024,1 hPa 0,0 l/m 1,3 km/h (1 Bft) NO 45 10,9 C 19,4 C 1,9 km/h (1 Bft)
18.07.2013 22:05 19,7 C 58 % 1024,1 hPa 0,0 l/m 1,4 km/h (1 Bft) NO 45 11,2 C 19,2 C 3,5 km/h (1 Bft)
18.07.2013 22:10 19,7 C 59 % 1024,1 hPa 0,0 l/m 1,9 km/h (1 Bft) O-NO 67 11,5 C 19,2 C 3,4 km/h (1 Bft)
18.07.2013 22:15 19,7 C 59 % 1024,1 hPa 0,0 l/m 2,4 km/h (1 Bft) O-NO 67 11,5 C 19,2 C 1,9 km/h (1 Bft)
18.07.2013 22:20 19,4 C 60 % 1024,0 hPa 0,0 l/m 1,9 km/h (1 Bft) O-NO 67 11,4 C 19,1 C 1,9 km/h (1 Bft)
18.07.2013 22:25 18,7 C 61 % 1024,0 hPa 0,0 l/m 0,6 km/h (0 Bft) NO 45 11,0 C 18,9 C 0,0 km/h (0 Bft)
18.07.2013 22:30 19,0 C 62 % 1024,0 hPa 0,0 l/m 0,8 km/h (0 Bft) NO 45 11,6 C 18,8 C 2,1 km/h (1 Bft)
18.07.2013 22:35 19,0 C 62 % 1024,0 hPa 0,0 l/m 1,6 km/h (1 Bft) O-SO 112 11,6 C 18,7 C 2,1 km/h (1 Bft)
18.07.2013 22:40 18,9 C 63 % 1024,2 hPa 0,0 l/m 1,8 km/h (1 Bft) O-SO 112 11,7 C 18,6 C 2,3 km/h (1 Bft)
18.07.2013 22:45 18,6 C 64 % 1024,2 hPa 0,0 l/m 1,0 km/h (0 Bft) O-SO 112 11,7 C 18,5 C 0,0 km/h (0 Bft)
18.07.2013 22:50 17,9 C 66 % 1024,2 hPa 0,0 l/m 0,5 km/h (0 Bft) O-SO 112 11,5 C 18,3 C 0,0 km/h (0 Bft)
18.07.2013 22:55 17,5 C 67 % 1024,2 hPa 0,0 l/m 0,0 km/h (0 Bft) NO 45 11,3 C 17,8 C 0,0 km/h (0 Bft)
18.07.2013 23:00 17,3 C 67 % 1024,1 hPa 0,0 l/m 0,0 km/h (0 Bft) NO 45 11,1 C 17,6 C 0,0 km/h (0 Bft)
18.07.2013 23:05 17,4 C 67 % 1024,1 hPa 0,0 l/m 0,0 km/h (0 Bft) NO 45 11,2 C 17,3 C 0,0 km/h (0 Bft)
18.07.2013 23:10 17,5 C 68 % 1024,1 hPa 0,0 l/m 0,0 km/h (0 Bft) NO 45 11,5 C 17,3 C 0,0 km/h (0 Bft)
18.07.2013 23:15 17,4 C 67 % 1024,1 hPa 0,0 l/m 0,0 km/h (0 Bft) NO 45 11,2 C 17,3 C 0,0 km/h (0 Bft)
18.07.2013 23:20 17,4 C 66 % 1024,2 hPa 0,0 l/m 0,0 km/h (0 Bft) O-SO 112 11,0 C 17,3 C 0,0 km/h (0 Bft)
18.07.2013 23:25 17,4 C 67 % 1024,2 hPa 0,0 l/m 0,2 km/h (0 Bft) S-SO 157 11,2 C 17,3 C 0,0 km/h (0 Bft)
18.07.2013 23:30 17,4 C 67 % 1024,2 hPa 0,0 l/m 0,2 km/h (0 Bft) O-SO 112 11,2 C 17,3 C 0,0 km/h (0 Bft)
18.07.2013 23:35 17,7 C 68 % 1024,2 hPa 0,0 l/m 0,3 km/h (0 Bft) N 360 11,7 C 17,3 C 3,1 km/h (1 Bft)
18.07.2013 23:40 17,9 C 69 % 1024,2 hPa 0,0 l/m 1,4 km/h (1 Bft) O-NO 67 12,1 C 17,4 C 4,5 km/h (1 Bft)
18.07.2013 23:45 18,0 C 69 % 1024,2 hPa 0,0 l/m 3,1 km/h (1 Bft) O-SO 112 12,2 C 17,6 C 2,3 km/h (1 Bft)
18.07.2013 23:50 17,8 C 69 % 1024,2 hPa 0,0 l/m 2,9 km/h (1 Bft) S 180 12,0 C 17,6 C 1,9 km/h (1 Bft)
18.07.2013 23:55 17,2 C 70 % 1024,2 hPa 0,0 l/m 1,1 km/h (1 Bft) O-SO 112 11,7 C 17,3 C 0,0 km/h (0 Bft)
_ Min-Zeit 05:05 14:30 17:55 - 23:20 - - 04:00 05:10 23:55
Minimum _ 10,9 C 34 % 1023,2 hPa - 0,0 km/h (0 Bft) - - 7,7 C 10,4 C 0,0 km/h (0 Bft)
_ Max-Zeit 14:05 05:50 00:35 23:55 14:00 - - 09:15 19:00 15:05
Maximum _ 28,2 C 83 % 1025,1 hPa 0,0 l/m 9,2 km/h
N (2 Bft)
- - 14,9 C 31,0 C 18,5 km/h
W-NW (3 Bft)
Durchschnitt _ 20,5 C 56 % 1024,2 hPa #0,0 l/m 2,6 km/h (1 Bft) N-NW - 10,8 C 21,5 C 3,6 km/h (1 Bft)